sensor_id;sensor_type;location;lat;lon;timestamp;temperature;humidity
22319;DHT22;11327;52.334;9.506;2023-04-01T00:01:20;10.40;99.90
22319;DHT22;11327;52.334;9.506;2023-04-01T00:04:41;10.40;99.90
22319;DHT22;11327;52.334;9.506;2023-04-01T00:08:02;10.40;99.90
22319;DHT22;11327;52.334;9.506;2023-04-01T00:11:23;10.40;99.90
22319;DHT22;11327;52.334;9.506;2023-04-01T00:14:44;10.40;99.90
22319;DHT22;11327;52.334;9.506;2023-04-01T00:18:05;10.40;99.90
22319;DHT22;11327;52.334;9.506;2023-04-01T00:21:26;10.40;99.90
22319;DHT22;11327;52.334;9.506;2023-04-01T00:24:47;10.30;99.90
22319;DHT22;11327;52.334;9.506;2023-04-01T00:28:08;10.30;99.90
22319;DHT22;11327;52.334;9.506;2023-04-01T00:31:30;10.20;99.90
22319;DHT22;11327;52.334;9.506;2023-04-01T00:34:51;10.20;99.90
22319;DHT22;11327;52.334;9.506;2023-04-01T00:38:12;10.30;99.90
22319;DHT22;11327;52.334;9.506;2023-04-01T00:41:33;10.30;99.90
22319;DHT22;11327;52.334;9.506;2023-04-01T00:44:54;10.30;99.90
22319;DHT22;11327;52.334;9.506;2023-04-01T00:48:23;10.30;99.90
22319;DHT22;11327;52.334;9.506;2023-04-01T00:51:48;10.30;99.90
22319;DHT22;11327;52.334;9.506;2023-04-01T00:55:11;10.30;99.90
22319;DHT22;11327;52.334;9.506;2023-04-01T00:58:36;10.20;99.90
22319;DHT22;11327;52.334;9.506;2023-04-01T01:01:58;10.20;99.90
22319;DHT22;11327;52.334;9.506;2023-04-01T01:05:23;10.10;99.90
22319;DHT22;11327;52.334;9.506;2023-04-01T01:16:20;10.10;99.90
22319;DHT22;11327;52.334;9.506;2023-04-01T01:20:03;10.10;99.90
22319;DHT22;11327;52.334;9.506;2023-04-01T01:30:35;10.00;99.90
22319;DHT22;11327;52.334;9.506;2023-04-01T01:37:27;10.00;99.90
22319;DHT22;11327;52.334;9.506;2023-04-01T01:40:51;10.00;99.90
22319;DHT22;11327;52.334;9.506;2023-04-01T01:44:16;10.00;99.90
22319;DHT22;11327;52.334;9.506;2023-04-01T01:47:37;10.00;99.90
22319;DHT22;11327;52.334;9.506;2023-04-01T01:50:59;10.00;99.90
22319;DHT22;11327;52.334;9.506;2023-04-01T01:54:20;10.00;99.90
22319;DHT22;11327;52.334;9.506;2023-04-01T01:57:43;10.00;99.90
22319;DHT22;11327;52.334;9.506;2023-04-01T02:01:06;10.00;99.90
22319;DHT22;11327;52.334;9.506;2023-04-01T02:04:28;10.00;99.90
22319;DHT22;11327;52.334;9.506;2023-04-01T02:07:55;10.00;99.90
22319;DHT22;11327;52.334;9.506;2023-04-01T02:11:19;10.00;99.90
22319;DHT22;11327;52.334;9.506;2023-04-01T02:15:08;10.00;99.90
22319;DHT22;11327;52.334;9.506;2023-04-01T02:18:10;10.00;99.90
22319;DHT22;11327;52.334;9.506;2023-04-01T02:21:32;10.00;99.90
22319;DHT22;11327;52.334;9.506;2023-04-01T02:24:54;9.90;99.90
22319;DHT22;11327;52.334;9.506;2023-04-01T02:28:18;9.90;99.90
22319;DHT22;11327;52.334;9.506;2023-04-01T02:31:41;9.90;99.90
22319;DHT22;11327;52.334;9.506;2023-04-01T02:35:05;9.90;99.90
22319;DHT22;11327;52.334;9.506;2023-04-01T02:38:26;9.90;99.90
22319;DHT22;11327;52.334;9.506;2023-04-01T02:41:48;9.90;99.90
22319;DHT22;11327;52.334;9.506;2023-04-01T02:45:09;9.90;99.90
22319;DHT22;11327;52.334;9.506;2023-04-01T02:48:30;9.90;99.90
22319;DHT22;11327;52.334;9.506;2023-04-01T02:51:51;10.00;99.90
22319;DHT22;11327;52.334;9.506;2023-04-01T02:55:12;9.90;99.90
22319;DHT22;11327;52.334;9.506;2023-04-01T02:58:33;9.90;99.90
22319;DHT22;11327;52.334;9.506;2023-04-01T03:01:53;9.80;99.90
22319;DHT22;11327;52.334;9.506;2023-04-01T03:05:14;9.80;99.90
22319;DHT22;11327;52.334;9.506;2023-04-01T03:08:35;9.80;99.90
22319;DHT22;11327;52.334;9.506;2023-04-01T03:11:56;10.00;99.90
22319;DHT22;11327;52.334;9.506;2023-04-01T03:15:17;9.90;99.90
22319;DHT22;11327;52.334;9.506;2023-04-01T03:18:38;10.00;99.90
22319;DHT22;11327;52.334;9.506;2023-04-01T03:21:59;10.00;99.90
22319;DHT22;11327;52.334;9.506;2023-04-01T03:25:19;9.90;99.90
22319;DHT22;11327;52.334;9.506;2023-04-01T03:28:40;10.00;99.90
22319;DHT22;11327;52.334;9.506;2023-04-01T03:32:01;9.90;99.90
22319;DHT22;11327;52.334;9.506;2023-04-01T03:35:22;9.90;99.90
22319;DHT22;11327;52.334;9.506;2023-04-01T03:38:44;9.90;99.90
22319;DHT22;11327;52.334;9.506;2023-04-01T03:42:05;9.90;99.90
22319;DHT22;11327;52.334;9.506;2023-04-01T03:45:26;9.90;99.90
22319;DHT22;11327;52.334;9.506;2023-04-01T03:48:47;9.90;99.90
22319;DHT22;11327;52.334;9.506;2023-04-01T03:52:11;9.90;99.90
22319;DHT22;11327;52.334;9.506;2023-04-01T03:55:32;9.90;99.90
22319;DHT22;11327;52.334;9.506;2023-04-01T03:58:52;9.90;99.90
22319;DHT22;11327;52.334;9.506;2023-04-01T04:02:13;9.80;99.90
22319;DHT22;11327;52.334;9.506;2023-04-01T04:05:34;9.80;99.90
22319;DHT22;11327;52.334;9.506;2023-04-01T04:08:54;9.80;99.90
22319;DHT22;11327;52.334;9.506;2023-04-01T04:12:15;9.80;99.90
22319;DHT22;11327;52.334;9.506;2023-04-01T04:15:36;9.70;99.90
22319;DHT22;11327;52.334;9.506;2023-04-01T04:18:56;9.80;99.90
22319;DHT22;11327;52.334;9.506;2023-04-01T04:22:17;9.70;99.90
22319;DHT22;11327;52.334;9.506;2023-04-01T04:25:38;9.80;99.90
22319;DHT22;11327;52.334;9.506;2023-04-01T04:28:59;9.70;99.90
22319;DHT22;11327;52.334;9.506;2023-04-01T04:32:20;9.60;99.90
22319;DHT22;11327;52.334;9.506;2023-04-01T04:35:41;9.60;99.90
22319;DHT22;11327;52.334;9.506;2023-04-01T04:39:01;9.60;99.90
22319;DHT22;11327;52.334;9.506;2023-04-01T04:42:23;9.60;99.90
22319;DHT22;11327;52.334;9.506;2023-04-01T04:45:44;9.50;99.90
22319;DHT22;11327;52.334;9.506;2023-04-01T04:49:06;9.50;99.90
22319;DHT22;11327;52.334;9.506;2023-04-01T04:52:27;9.50;99.90
22319;DHT22;11327;52.334;9.506;2023-04-01T04:55:49;9.40;99.90
22319;DHT22;11327;52.334;9.506;2023-04-01T04:59:10;9.50;99.90
22319;DHT22;11327;52.334;9.506;2023-04-01T05:02:30;9.50;99.90
22319;DHT22;11327;52.334;9.506;2023-04-01T05:05:53;9.50;99.90
22319;DHT22;11327;52.334;9.506;2023-04-01T05:09:14;9.50;99.90
22319;DHT22;11327;52.334;9.506;2023-04-01T05:12:35;9.50;99.90
22319;DHT22;11327;52.334;9.506;2023-04-01T05:15:59;9.50;99.90
22319;DHT22;11327;52.334;9.506;2023-04-01T05:19:20;9.50;99.90
22319;DHT22;11327;52.334;9.506;2023-04-01T05:22:41;9.50;99.90
22319;DHT22;11327;52.334;9.506;2023-04-01T05:26:05;9.40;99.90
22319;DHT22;11327;52.334;9.506;2023-04-01T05:29:26;9.50;99.90
22319;DHT22;11327;52.334;9.506;2023-04-01T05:32:47;9.50;99.90
22319;DHT22;11327;52.334;9.506;2023-04-01T05:36:09;9.50;99.90
22319;DHT22;11327;52.334;9.506;2023-04-01T05:39:30;9.50;99.90
22319;DHT22;11327;52.334;9.506;2023-04-01T05:42:51;9.50;99.90
22319;DHT22;11327;52.334;9.506;2023-04-01T05:46:12;9.50;99.90
22319;DHT22;11327;52.334;9.506;2023-04-01T05:49:33;9.50;99.90
22319;DHT22;11327;52.334;9.506;2023-04-01T05:52:54;9.50;99.90
22319;DHT22;11327;52.334;9.506;2023-04-01T05:56:15;9.60;99.90
22319;DHT22;11327;52.334;9.506;2023-04-01T05:59:36;9.70;99.90
22319;DHT22;11327;52.334;9.506;2023-04-01T06:02:58;9.70;99.90
22319;DHT22;11327;52.334;9.506;2023-04-01T06:06:25;9.80;99.90
22319;DHT22;11327;52.334;9.506;2023-04-01T06:09:46;9.90;99.90
22319;DHT22;11327;52.334;9.506;2023-04-01T06:13:12;9.90;99.90
22319;DHT22;11327;52.334;9.506;2023-04-01T06:28:07;10.00;99.90
22319;DHT22;11327;52.334;9.506;2023-04-01T07:00:42;10.10;99.90
22319;DHT22;11327;52.334;9.506;2023-04-01T07:04:13;10.20;99.90
22319;DHT22;11327;52.334;9.506;2023-04-01T07:07:43;10.10;99.90
22319;DHT22;11327;52.334;9.506;2023-04-01T07:11:14;10.20;99.90
22319;DHT22;11327;52.334;9.506;2023-04-01T07:14:36;10.20;99.90
22319;DHT22;11327;52.334;9.506;2023-04-01T07:18:09;10.30;99.90
22319;DHT22;11327;52.334;9.506;2023-04-01T07:25:17;10.40;99.90
22319;DHT22;11327;52.334;9.506;2023-04-01T07:28:38;10.40;99.90
22319;DHT22;11327;52.334;9.506;2023-04-01T07:32:21;10.50;99.90
22319;DHT22;11327;52.334;9.506;2023-04-01T07:36:09;10.60;99.90
22319;DHT22;11327;52.334;9.506;2023-04-01T07:58:24;10.80;99.90
22319;DHT22;11327;52.334;9.506;2023-04-01T08:05:27;10.80;99.90
22319;DHT22;11327;52.334;9.506;2023-04-01T08:09:11;10.90;99.90
22319;DHT22;11327;52.334;9.506;2023-04-01T08:16:18;11.10;99.90
22319;DHT22;11327;52.334;9.506;2023-04-01T08:23:40;11.10;99.90
22319;DHT22;11327;52.334;9.506;2023-04-01T08:27:04;11.10;99.90
22319;DHT22;11327;52.334;9.506;2023-04-01T08:34:04;11.10;99.90
22319;DHT22;11327;52.334;9.506;2023-04-01T08:37:31;11.10;99.90
22319;DHT22;11327;52.334;9.506;2023-04-01T08:41:16;11.00;99.90
22319;DHT22;11327;52.334;9.506;2023-04-01T08:44:58;11.10;99.90
22319;DHT22;11327;52.334;9.506;2023-04-01T09:03:21;11.30;99.90
22319;DHT22;11327;52.334;9.506;2023-04-01T09:06:47;11.30;99.90
22319;DHT22;11327;52.334;9.506;2023-04-01T09:29:02;11.40;99.90
22319;DHT22;11327;52.334;9.506;2023-04-01T09:39:37;11.40;99.90
22319;DHT22;11327;52.334;9.506;2023-04-01T09:43:23;11.30;99.90
22319;DHT22;11327;52.334;9.506;2023-04-01T09:50:35;11.30;99.90
22319;DHT22;11327;52.334;9.506;2023-04-01T10:01:14;11.60;99.90
22319;DHT22;11327;52.334;9.506;2023-04-01T10:19:42;11.90;99.90
22319;DHT22;11327;52.334;9.506;2023-04-01T10:23:13;12.10;99.90
22319;DHT22;11327;52.334;9.506;2023-04-01T10:26:55;12.10;99.90
22319;DHT22;11327;52.334;9.506;2023-04-01T10:34:27;12.30;99.90
22319;DHT22;11327;52.334;9.506;2023-04-01T10:41:44;12.20;99.90
22319;DHT22;11327;52.334;9.506;2023-04-01T10:48:59;12.50;99.90
22319;DHT22;11327;52.334;9.506;2023-04-01T11:15:05;12.60;99.90
22319;DHT22;11327;52.334;9.506;2023-04-01T11:26:04;12.70;99.90
22319;DHT22;11327;52.334;9.506;2023-04-01T11:29:38;12.70;99.90
22319;DHT22;11327;52.334;9.506;2023-04-01T11:33:25;12.70;99.90
22319;DHT22;11327;52.334;9.506;2023-04-01T11:48:13;12.50;99.90
22319;DHT22;11327;52.334;9.506;2023-04-01T11:55:56;12.60;99.90
22319;DHT22;11327;52.334;9.506;2023-04-01T12:06:56;12.60;99.90
22319;DHT22;11327;52.334;9.506;2023-04-01T12:10:39;12.70;99.90
22319;DHT22;11327;52.334;9.506;2023-04-01T12:18:16;12.70;99.90
22319;DHT22;11327;52.334;9.506;2023-04-01T12:25:26;12.80;99.90
22319;DHT22;11327;52.334;9.506;2023-04-01T12:44:16;12.90;99.90
22319;DHT22;11327;52.334;9.506;2023-04-01T13:09:31;13.20;99.90
22319;DHT22;11327;52.334;9.506;2023-04-01T13:16:27;13.30;99.90
22319;DHT22;11327;52.334;9.506;2023-04-01T13:20:06;13.30;99.90
22319;DHT22;11327;52.334;9.506;2023-04-01T13:23:36;13.30;99.90
22319;DHT22;11327;52.334;9.506;2023-04-01T13:27:01;13.30;99.90
22319;DHT22;11327;52.334;9.506;2023-04-01T13:30:24;13.30;99.90
22319;DHT22;11327;52.334;9.506;2023-04-01T13:34:14;13.20;99.90
22319;DHT22;11327;52.334;9.506;2023-04-01T13:44:54;13.00;99.90
22319;DHT22;11327;52.334;9.506;2023-04-01T13:52:07;13.10;99.90
22319;DHT22;11327;52.334;9.506;2023-04-01T13:55:53;12.90;99.90
22319;DHT22;11327;52.334;9.506;2023-04-01T13:59:27;12.90;99.90
22319;DHT22;11327;52.334;9.506;2023-04-01T14:10:11;12.70;99.90
22319;DHT22;11327;52.334;9.506;2023-04-01T14:17:14;12.40;99.90
22319;DHT22;11327;52.334;9.506;2023-04-01T14:20:39;12.40;99.90
22319;DHT22;11327;52.334;9.506;2023-04-01T14:27:47;12.40;99.90
22319;DHT22;11327;52.334;9.506;2023-04-01T14:42:38;11.50;99.90
22319;DHT22;11327;52.334;9.506;2023-04-01T14:49:43;11.20;99.90
22319;DHT22;11327;52.334;9.506;2023-04-01T14:56:41;10.80;99.90
22319;DHT22;11327;52.334;9.506;2023-04-01T15:00:14;10.80;99.90
22319;DHT22;11327;52.334;9.506;2023-04-01T15:04:09;10.70;99.90
22319;DHT22;11327;52.334;9.506;2023-04-01T15:11:22;10.40;99.90
22319;DHT22;11327;52.334;9.506;2023-04-01T15:26:03;10.30;99.90
22319;DHT22;11327;52.334;9.506;2023-04-01T15:36:51;10.10;99.90
22319;DHT22;11327;52.334;9.506;2023-04-01T15:40:22;9.80;99.90
22319;DHT22;11327;52.334;9.506;2023-04-01T15:43:48;9.80;99.90
22319;DHT22;11327;52.334;9.506;2023-04-01T16:06:06;9.50;99.90
22319;DHT22;11327;52.334;9.506;2023-04-01T16:16:35;9.30;99.90
22319;DHT22;11327;52.334;9.506;2023-04-01T16:23:51;9.20;99.90
22319;DHT22;11327;52.334;9.506;2023-04-01T16:27:33;9.20;99.90
22319;DHT22;11327;52.334;9.506;2023-04-01T16:34:44;9.10;99.90
22319;DHT22;11327;52.334;9.506;2023-04-01T16:45:24;8.90;99.90
22319;DHT22;11327;52.334;9.506;2023-04-01T16:48:58;8.80;99.90
22319;DHT22;11327;52.334;9.506;2023-04-01T16:52:17;8.80;99.90
22319;DHT22;11327;52.334;9.506;2023-04-01T16:59:24;8.60;99.90
22319;DHT22;11327;52.334;9.506;2023-04-01T17:02:48;8.50;99.90
22319;DHT22;11327;52.334;9.506;2023-04-01T17:17:51;8.30;99.90
22319;DHT22;11327;52.334;9.506;2023-04-01T17:21:23;8.40;99.90
22319;DHT22;11327;52.334;9.506;2023-04-01T17:25:00;8.30;99.90
22319;DHT22;11327;52.334;9.506;2023-04-01T17:32:20;8.20;99.90
22319;DHT22;11327;52.334;9.506;2023-04-01T17:50:36;7.90;99.90
22319;DHT22;11327;52.334;9.506;2023-04-01T18:04:46;7.70;99.90
22319;DHT22;11327;52.334;9.506;2023-04-01T18:22:45;7.60;99.90
22319;DHT22;11327;52.334;9.506;2023-04-01T18:30:07;7.30;99.90
22319;DHT22;11327;52.334;9.506;2023-04-01T18:33:44;7.40;99.90
22319;DHT22;11327;52.334;9.506;2023-04-01T18:37:30;7.30;99.90
22319;DHT22;11327;52.334;9.506;2023-04-01T18:40:54;7.30;99.90
22319;DHT22;11327;52.334;9.506;2023-04-01T18:51:47;7.20;99.90
22319;DHT22;11327;52.334;9.506;2023-04-01T18:59:10;7.20;99.90
22319;DHT22;11327;52.334;9.506;2023-04-01T19:02:34;7.30;99.90
22319;DHT22;11327;52.334;9.506;2023-04-01T19:05:59;7.30;99.90
22319;DHT22;11327;52.334;9.506;2023-04-01T19:12:55;7.10;99.90
22319;DHT22;11327;52.334;9.506;2023-04-01T19:16:28;7.10;99.90
22319;DHT22;11327;52.334;9.506;2023-04-01T19:20:00;7.10;99.90
22319;DHT22;11327;52.334;9.506;2023-04-01T19:27:22;6.90;99.90
22319;DHT22;11327;52.334;9.506;2023-04-01T19:30:56;6.80;99.90
22319;DHT22;11327;52.334;9.506;2023-04-01T19:34:37;6.80;99.90
22319;DHT22;11327;52.334;9.506;2023-04-01T19:38:35;6.80;99.90
22319;DHT22;11327;52.334;9.506;2023-04-01T19:42:35;6.80;99.90
22319;DHT22;11327;52.334;9.506;2023-04-01T19:45:52;6.80;99.90
22319;DHT22;11327;52.334;9.506;2023-04-01T19:49:24;6.80;99.90
22319;DHT22;11327;52.334;9.506;2023-04-01T19:52:45;6.80;99.90
22319;DHT22;11327;52.334;9.506;2023-04-01T19:56:19;6.80;99.90
22319;DHT22;11327;52.334;9.506;2023-04-01T19:59:50;6.80;99.90
22319;DHT22;11327;52.334;9.506;2023-04-01T20:07:14;6.60;99.90
22319;DHT22;11327;52.334;9.506;2023-04-01T20:10:43;6.50;99.90
22319;DHT22;11327;52.334;9.506;2023-04-01T20:18:05;6.50;99.90
22319;DHT22;11327;52.334;9.506;2023-04-01T20:21:34;6.30;99.90
22319;DHT22;11327;52.334;9.506;2023-04-01T20:24:58;6.30;99.90
22319;DHT22;11327;52.334;9.506;2023-04-01T20:28:25;6.30;99.90
22319;DHT22;11327;52.334;9.506;2023-04-01T20:31:59;6.30;99.90
22319;DHT22;11327;52.334;9.506;2023-04-01T20:43:02;6.30;99.90
22319;DHT22;11327;52.334;9.506;2023-04-01T21:08:43;6.10;99.90
22319;DHT22;11327;52.334;9.506;2023-04-01T21:15:52;6.00;99.90
22319;DHT22;11327;52.334;9.506;2023-04-01T21:23:06;5.80;99.90
22319;DHT22;11327;52.334;9.506;2023-04-01T21:30:37;5.70;99.90
22319;DHT22;11327;52.334;9.506;2023-04-01T21:34:04;5.70;99.90
22319;DHT22;11327;52.334;9.506;2023-04-01T21:41:44;5.60;99.90
22319;DHT22;11327;52.334;9.506;2023-04-01T22:07:21;5.80;99.90
22319;DHT22;11327;52.334;9.506;2023-04-01T22:10:59;5.70;99.90
22319;DHT22;11327;52.334;9.506;2023-04-01T22:18:37;5.70;99.90
22319;DHT22;11327;52.334;9.506;2023-04-01T22:25:15;5.50;99.90
22319;DHT22;11327;52.334;9.506;2023-04-01T22:35:48;5.40;99.90
22319;DHT22;11327;52.334;9.506;2023-04-01T22:42:44;5.30;99.90
22319;DHT22;11327;52.334;9.506;2023-04-01T22:46:09;5.20;99.90
22319;DHT22;11327;52.334;9.506;2023-04-01T22:49:35;5.20;99.90
22319;DHT22;11327;52.334;9.506;2023-04-01T22:53:00;5.20;99.90
22319;DHT22;11327;52.334;9.506;2023-04-01T22:56:20;5.10;99.90
22319;DHT22;11327;52.334;9.506;2023-04-01T23:03:21;5.10;99.90
22319;DHT22;11327;52.334;9.506;2023-04-01T23:06:46;5.00;99.90
22319;DHT22;11327;52.334;9.506;2023-04-01T23:10:11;5.00;99.90
22319;DHT22;11327;52.334;9.506;2023-04-01T23:13:47;5.10;99.90
22319;DHT22;11327;52.334;9.506;2023-04-01T23:17:22;5.10;99.90
22319;DHT22;11327;52.334;9.506;2023-04-01T23:27:56;5.20;99.90
22319;DHT22;11327;52.334;9.506;2023-04-01T23:34:55;5.10;99.90
22319;DHT22;11327;52.334;9.506;2023-04-01T23:38:18;5.00;99.90
22319;DHT22;11327;52.334;9.506;2023-04-01T23:41:39;5.10;99.90
22319;DHT22;11327;52.334;9.506;2023-04-01T23:45:05;5.00;99.90
22319;DHT22;11327;52.334;9.506;2023-04-01T23:48:35;5.00;99.90
22319;DHT22;11327;52.334;9.506;2023-04-01T23:51:56;4.90;99.90
22319;DHT22;11327;52.334;9.506;2023-04-01T23:55:25;4.80;99.90
22319;DHT22;11327;52.334;9.506;2023-04-01T23:58:49;4.90;99.90
